Time;durP1;ratioP1;P1;durP2;ratioP2;P2;SDS_P1;SDS_P2;PMS_P1;PMS_P2;Temp;Humidity;BMP_temperature;BMP_pressure;BME280_temperature;BME280_humidity;BME280_pressure;Samples;Min_cycle;Max_cycle;Signal;HPM_P1;HPM_P2
2023/04/04 13:39:28;;;;;;;2.00;1.20;;;;;;;21.30;39.39;102229.63;5115729;27;20427;-47
2023/04/04 13:41:56;;;;;;;4.00;1.55;;;;;;;22.17;37.91;102229.00;5110231;28;20040;-46
2023/04/04 13:44:24;;;;;;;6.40;1.77;;;;;;;22.85;36.16;102223.81;5110544;28;20561;-48
2023/04/04 13:46:51;;;;;;;5.10;1.42;;;;;;;23.37;35.19;102218.72;5110500;28;20089;-47
2023/04/04 13:49:19;;;;;;;3.80;1.30;;;;;;;23.69;34.65;102220.69;5110765;28;20461;-47
2023/04/04 13:51:48;;;;;;;3.35;1.50;;;;;;;23.87;34.01;102216.09;5109758;28;20035;-48
2023/04/04 13:54:17;;;;;;;4.72;1.60;;;;;;;24.03;33.45;102214.88;5110070;28;20027;-43
2023/04/04 13:56:46;;;;;;;6.38;2.00;;;;;;;24.15;33.08;102211.75;5109523;28;20020;-43
2023/04/04 13:59:14;;;;;;;5.55;1.88;;;;;;;24.29;33.09;102204.34;5109645;28;20028;-48
2023/04/04 14:01:43;;;;;;;5.15;1.50;;;;;;;24.30;32.71;102205.22;5108458;28;20077;-47
2023/04/04 14:04:11;;;;;;;3.20;1.65;;;;;;;24.34;33.07;102200.13;5109284;28;20064;-43
2023/04/04 14:06:40;;;;;;;3.67;1.30;;;;;;;24.45;32.53;102196.94;5109592;28;20031;-45
2023/04/04 14:09:09;;;;;;;2.70;1.60;;;;;;;24.46;32.52;102189.13;5109689;28;20027;-46
2023/04/04 14:11:36;;;;;;;3.45;1.60;;;;;;;24.57;32.42;102186.81;5105506;28;20081;-47
2023/04/04 14:14:04;;;;;;;4.07;2.10;;;;;;;24.58;32.36;102186.84;5109301;28;20054;-47
2023/04/04 14:16:33;;;;;;;5.43;2.22;;;;;;;24.59;32.43;102179.88;5109386;28;20024;-45
2023/04/04 14:19:02;;;;;;;8.75;2.05;;;;;;;24.54;32.30;102181.47;5109301;28;20032;-48
2023/04/04 14:21:30;;;;;;;3.97;1.90;;;;;;;24.53;32.53;102174.44;5109319;28;20031;-45
2023/04/04 14:23:59;;;;;;;4.00;1.83;;;;;;;24.41;32.31;102173.25;5108781;28;20475;-47
2023/04/04 14:26:27;;;;;;;4.55;1.80;;;;;;;24.50;32.62;102176.97;5107810;28;20028;-47
2023/04/04 14:28:56;;;;;;;5.65;1.98;;;;;;;24.63;32.52;102175.59;5108891;28;20503;-46
2023/04/04 14:31:24;;;;;;;7.32;2.85;;;;;;;24.65;32.14;102174.84;5108432;28;20024;-48
2023/04/04 14:33:52;;;;;;;5.68;2.35;;;;;;;24.62;32.11;102173.84;5108276;28;20073;-46
2023/04/04 14:36:23;;;;;;;4.47;2.60;;;;;;;24.54;32.33;102165.72;5108807;28;20357;-47
2023/04/04 14:38:51;;;;;;;5.70;2.58;;;;;;;24.53;32.21;102166.56;5108375;28;20052;-46
2023/04/04 14:41:20;;;;;;;6.60;2.90;;;;;;;24.49;32.34;102160.34;5108417;28;20032;-46
2023/04/04 14:43:48;;;;;;;4.85;2.63;;;;;;;24.52;32.04;102163.06;5107183;28;20043;-47
2023/04/04 14:46:18;;;;;;;7.15;3.25;;;;;;;24.47;32.40;102158.53;5108329;28;20039;-45
2023/04/04 14:48:46;;;;;;;5.97;3.08;;;;;;;24.60;32.36;102167.63;5106491;28;20032;-46
2023/04/04 14:51:15;;;;;;;4.20;2.53;;;;;;;24.36;32.12;102126.75;5093836;28;20028;-45
2023/04/04 14:53:44;;;;;;;4.80;2.10;;;;;;;24.46;32.63;102154.13;5091375;28;20096;-47
2023/04/04 14:56:12;;;;;;;6.07;2.53;;;;;;;24.63;32.24;102160.78;5095355;28;20058;-47
2023/04/04 14:58:41;;;;;;;6.55;2.97;;;;;;;24.59;32.09;102153.66;5094765;28;20032;-43
2023/04/04 15:01:09;;;;;;;4.75;2.47;;;;;;;24.60;32.51;102151.91;5094922;28;20111;-47
2023/04/04 15:03:38;;;;;;;4.03;2.60;;;;;;;24.67;32.17;102149.50;5094584;28;20039;-48
2023/04/04 15:06:06;;;;;;;6.75;2.28;;;;;;;24.72;32.52;102141.81;5093259;28;20024;-45
2023/04/04 15:08:35;;;;;;;4.65;2.10;;;;;;;24.79;32.00;102146.38;5094188;28;20032;-49
2023/04/04 15:11:04;;;;;;;3.60;2.10;;;;;;;24.83;32.40;102147.34;5094728;28;20054;-48
2023/04/04 15:13:33;;;;;;;4.00;2.08;;;;;;;24.83;32.10;102149.97;5093587;28;20107;-48
2023/04/04 15:16:00;;;;;;;4.80;1.92;;;;;;;24.83;32.09;102143.00;5094272;28;20016;-47
2023/04/04 15:18:29;;;;;;;5.18;2.05;;;;;;;24.92;32.16;102145.00;5093991;28;20032;-44
2023/04/04 15:20:59;;;;;;;3.75;2.05;;;;;;;25.02;32.24;102146.13;5093643;28;20102;-47
2023/04/04 15:23:27;;;;;;;2.85;2.00;;;;;;;25.13;32.03;102149.06;5094479;28;20032;-43
2023/04/04 15:25:56;;;;;;;2.33;1.58;;;;;;;25.08;31.82;102146.28;5094288;28;20028;-52
2023/04/04 15:28:25;;;;;;;4.63;1.98;;;;;;;24.98;31.83;102147.81;5092776;28;20099;-48
2023/04/04 15:30:53;;;;;;;3.80;1.50;;;;;;;24.85;32.46;102135.16;5094383;28;20043;-48
2023/04/04 15:33:22;;;;;;;3.22;1.80;;;;;;;24.98;31.95;102129.41;5094453;28;20078;-48
2023/04/04 15:35:50;;;;;;;4.00;2.28;;;;;;;24.91;32.02;102132.72;5088979;28;20024;-51
2023/04/04 15:38:17;;;;;;;4.43;2.47;;;;;;;24.91;32.43;102131.81;5091330;28;20047;-48
2023/04/04 15:40:45;;;;;;;6.63;2.72;;;;;;;24.93;32.44;102128.41;5093073;28;20462;-43
2023/04/04 15:43:13;;;;;;;3.60;2.58;;;;;;;24.82;32.38;102133.34;5093185;28;20028;-45
2023/04/04 15:45:42;;;;;;;5.30;2.63;;;;;;;24.77;32.74;102131.44;5093295;28;20469;-48
2023/04/04 15:48:10;;;;;;;6.78;2.80;;;;;;;24.76;32.62;102134.91;5092034;28;20032;-47
2023/04/04 15:50:38;;;;;;;4.63;2.30;;;;;;;24.75;32.73;102125.25;5093153;28;20106;-49
2023/04/04 15:53:06;;;;;;;5.10;2.80;;;;;;;24.69;33.01;102115.44;5093407;28;20106;-48
2023/04/04 15:55:33;;;;;;;4.72;2.45;;;;;;;24.78;32.80;102120.09;5092881;28;20119;-49
2023/04/04 15:58:01;;;;;;;5.90;2.63;;;;;;;24.73;33.18;102133.97;5092413;28;20020;-52
2023/04/04 16:00:32;;;;;;;3.83;2.38;;;;;;;24.76;33.01;102127.03;5093159;28;20050;-43
2023/04/04 16:03:01;;;;;;;3.65;2.10;;;;;;;24.73;33.16;102135.72;5092799;28;20024;-45
2023/04/04 16:05:29;;;;;;;5.78;2.25;;;;;;;24.74;32.90;102119.09;5094051;28;20020;-43
2023/04/04 16:07:58;;;;;;;8.13;2.08;;;;;;;24.76;33.17;102127.03;5088917;28;20035;-48
2023/04/04 16:10:26;;;;;;;5.22;2.33;;;;;;;24.80;33.02;102123.66;5093171;28;20024;-43
2023/04/04 16:12:55;;;;;;;4.57;2.13;;;;;;;24.78;33.15;102126.22;5093711;28;20034;-49
2023/04/04 16:15:23;;;;;;;6.43;1.95;;;;;;;24.79;33.21;102122.75;5093448;28;20442;-49
2023/04/04 16:17:52;;;;;;;4.10;2.15;;;;;;;24.76;32.90;102127.03;5092638;28;20036;-51
2023/04/04 16:20:21;;;;;;;5.07;2.13;;;;;;;24.80;32.92;102121.03;5093437;28;20504;-46
2023/04/04 16:22:49;;;;;;;4.72;2.00;;;;;;;24.77;33.08;102124.44;5093330;28;20461;-46
2023/04/04 16:25:18;;;;;;;4.07;1.90;;;;;;;24.79;33.13;102119.25;5093297;28;20024;-43
2023/04/04 16:27:46;;;;;;;3.03;2.20;;;;;;;24.76;33.12;102121.78;5092601;28;20110;-44
2023/04/04 16:30:15;;;;;;;2.75;1.60;;;;;;;24.78;33.03;102112.22;5092727;28;20028;-48
2023/04/04 16:32:45;;;;;;;4.03;1.90;;;;;;;24.78;32.79;102101.72;5093546;28;20028;-43
2023/04/04 16:35:14;;;;;;;2.00;1.45;;;;;;;24.81;32.79;102104.44;5092114;28;20118;-46
2023/04/04 16:37:42;;;;;;;4.82;2.05;;;;;;;24.73;32.95;102099.84;5092439;28;20109;-46
2023/04/04 16:40:11;;;;;;;2.45;1.30;;;;;;;24.77;33.01;102098.19;5092382;28;20035;-47
2023/04/04 16:42:39;;;;;;;5.00;1.77;;;;;;;24.75;32.96;102093.78;5093366;28;20445;-46
2023/04/04 16:45:08;;;;;;;4.80;2.05;;;;;;;24.75;33.30;102089.41;5093222;28;20048;-46
2023/04/04 16:47:37;;;;;;;2.42;1.70;;;;;;;24.80;33.18;102089.53;5092146;28;20096;-45
2023/04/04 16:50:06;;;;;;;2.90;1.27;;;;;;;24.89;32.63;102084.53;5092990;28;20036;-48
2023/04/04 16:52:33;;;;;;;2.38;1.50;;;;;;;24.86;32.72;102089.69;5087933;28;20024;-47
2023/04/04 16:55:01;;;;;;;4.85;1.73;;;;;;;24.90;32.86;102088.94;5091185;28;20031;-52
2023/04/04 16:57:28;;;;;;;8.27;1.95;;;;;;;24.85;32.39;102083.56;5091794;28;20496;-47
2023/04/04 16:59:56;;;;;;;4.07;1.77;;;;;;;24.90;32.74;102088.06;5090600;28;20032;-51
2023/04/04 17:02:23;;;;;;;1.95;1.17;;;;;;;24.87;32.81;102078.34;5091967;28;20073;-45
2023/04/04 17:04:52;;;;;;;3.78;1.40;;;;;;;24.86;32.76;102080.09;5091844;28;20035;-48
2023/04/04 17:07:20;;;;;;;4.03;1.55;;;;;;;24.90;32.59;102075.81;5091646;28;20027;-50
2023/04/04 17:09:50;;;;;;;2.53;1.80;;;;;;;24.91;32.60;102077.59;5091310;28;20028;-45
2023/04/04 17:12:17;;;;;;;4.93;2.00;;;;;;;24.85;32.92;102070.44;5091370;28;20085;-44
2023/04/04 17:14:45;;;;;;;5.95;3.45;;;;;;;24.78;32.95;102062.38;5090121;28;20028;-47
2023/04/04 17:17:14;;;;;;;8.32;6.10;;;;;;;24.80;32.79;102064.19;5090900;28;20024;-45
2023/04/04 17:19:43;;;;;;;12.13;9.38;;;;;;;24.83;32.92;102065.97;5091568;28;20020;-49
2023/04/04 17:22:10;;;;;;;15.65;11.30;;;;;;;24.85;32.70;102069.53;5089382;28;20024;-45
2023/04/04 17:24:38;;;;;;;23.20;16.60;;;;;;;24.87;32.82;102067.84;5070372;28;20063;-43
2023/04/04 17:27:05;;;;;;;32.85;25.17;;;;;;;24.91;32.95;102061.84;5091360;28;20058;-42
2023/04/04 17:29:32;;;;;;;37.30;26.38;;;;;;;24.91;32.92;102063.56;5090216;28;20342;-44
2023/04/04 17:32:00;;;;;;;41.55;30.75;;;;;;;24.88;32.77;102070.53;5090223;28;20453;-43
2023/04/04 17:34:28;;;;;;;55.65;38.78;;;;;;;24.88;32.74;102064.38;5090702;28;20032;-46
2023/04/04 17:36:56;;;;;;;67.05;44.13;;;;;;;24.93;32.82;102062.78;5091117;28;20476;-46
2023/04/04 17:39:23;;;;;;;64.40;43.28;;;;;;;24.94;32.83;102061.94;5090808;28;20056;-44
2023/04/04 17:41:51;;;;;;;59.40;41.33;;;;;;;25.00;32.71;102067.31;5090244;28;20474;-43
2023/04/04 17:44:21;;;;;;;60.35;40.65;;;;;;;24.97;32.98;102067.25;5090934;28;20024;-49
2023/04/04 17:46:49;;;;;;;66.13;40.00;;;;;;;24.94;32.77;102054.06;5088658;28;20154;-49
2023/04/04 17:49:19;;;;;;;69.20;39.75;;;;;;;25.02;33.08;102060.38;5090053;28;20183;-49
2023/04/04 17:51:48;;;;;;;68.95;39.15;;;;;;;25.05;33.23;102067.47;5088145;28;20028;-44
2023/04/04 17:54:16;;;;;;;77.30;39.95;;;;;;;25.16;33.13;102070.34;5092160;28;20020;-47
2023/04/04 17:56:44;;;;;;;77.63;39.47;;;;;;;25.08;33.41;102061.38;5091682;28;20028;-47
2023/04/04 17:59:12;;;;;;;70.00;36.38;;;;;;;25.23;33.36;102060.91;5091566;28;20042;-52
2023/04/04 18:01:40;;;;;;;67.30;35.50;;;;;;;25.22;33.97;102064.38;5091721;28;20153;-48
2023/04/04 18:04:07;;;;;;;72.65;35.92;;;;;;;25.11;34.56;102064.97;5091969;28;20032;-47
2023/04/04 18:06:36;;;;;;;60.38;32.47;;;;;;;25.13;34.56;102060.66;5090123;28;20457;-49
2023/04/04 18:09:04;;;;;;;59.28;28.80;;;;;;;25.29;34.35;102064.56;5089012;28;20036;-46
2023/04/04 18:11:35;;;;;;;56.80;27.85;;;;;;;25.26;34.78;102064.50;5090631;28;20070;-50
2023/04/04 18:14:03;;;;;;;49.70;26.88;;;;;;;25.13;34.75;102058.03;5091297;28;20036;-48
2023/04/04 18:16:32;;;;;;;55.03;25.33;;;;;;;25.16;34.44;102060.75;5073029;28;20073;-49
2023/04/04 18:18:59;;;;;;;48.55;24.30;;;;;;;25.21;34.32;102068.72;5092489;28;20040;-48
2023/04/04 18:21:27;;;;;;;46.13;22.63;;;;;;;25.20;34.43;102068.69;5092045;28;20101;-49
2023/04/04 18:23:55;;;;;;;42.85;21.33;;;;;;;25.13;34.18;102073.78;5092128;28;20515;-50
2023/04/04 18:26:22;;;;;;;46.63;21.15;;;;;;;25.07;33.99;102075.38;5094520;28;20036;-49
2023/04/04 18:28:50;;;;;;;48.50;20.70;;;;;;;24.94;34.24;102077.69;5095205;28;20077;-44
2023/04/04 18:31:17;;;;;;;38.00;19.10;;;;;;;24.97;34.17;102089.97;5094556;28;20024;-43
2023/04/04 18:33:45;;;;;;;36.80;17.98;;;;;;;24.89;34.31;102089.78;5096054;28;20067;-46
2023/04/04 18:36:12;;;;;;;36.17;16.85;;;;;;;24.98;34.12;102083.88;5096006;28;20435;-47
2023/04/04 18:38:39;;;;;;;36.50;15.13;;;;;;;25.00;33.76;102090.06;5095868;28;20048;-50
2023/04/04 18:41:08;;;;;;;34.17;13.80;;;;;;;25.01;33.67;102094.47;5094182;28;20028;-46
2023/04/04 18:43:36;;;;;;;26.05;13.32;;;;;;;24.87;33.90;102086.22;5095840;28;20060;-49
2023/04/04 18:46:03;;;;;;;26.75;12.50;;;;;;;24.77;33.68;102079.84;5094129;28;20034;-47
2023/04/04 18:48:32;;;;;;;24.80;12.65;;;;;;;24.82;34.10;102093.09;5095718;28;20032;-49
2023/04/04 18:51:00;;;;;;;27.90;11.80;;;;;;;24.83;33.82;102093.13;5095434;28;20473;-50
2023/04/04 18:53:28;;;;;;;21.33;11.18;;;;;;;24.78;33.71;102089.47;5095340;28;20032;-50
2023/04/04 18:55:57;;;;;;;22.27;9.90;;;;;;;24.83;33.46;102097.47;5095626;28;20024;-51
2023/04/04 18:58:25;;;;;;;21.40;9.30;;;;;;;24.87;33.55;102104.59;5095433;28;20496;-49
2023/04/04 19:00:54;;;;;;;19.17;9.95;;;;;;;24.83;33.40;102094.84;5077402;28;20035;-44
2023/04/04 19:03:22;;;;;;;19.48;8.98;;;;;;;24.81;33.24;102101.81;5095092;28;20016;-48
2023/04/04 19:05:50;;;;;;;17.80;7.80;;;;;;;24.66;33.73;102102.25;5095062;28;20024;-51
2023/04/04 19:08:18;;;;;;;20.38;7.68;;;;;;;24.70;33.58;102091.03;5095515;28;20081;-46
2023/04/04 19:10:49;;;;;;;19.40;7.80;;;;;;;24.63;33.82;102099.53;5095395;28;20028;-48
2023/04/04 19:13:18;;;;;;;17.23;7.50;;;;;;;24.61;33.74;102102.13;5094842;28;20039;-45
2023/04/04 19:15:45;;;;;;;15.27;6.65;;;;;;;24.40;33.58;102069.16;5095426;28;20111;-48
2023/04/04 19:18:12;;;;;;;12.00;5.82;;;;;;;24.66;33.75;102105.75;5093999;28;20473;-48
2023/04/04 19:20:42;;;;;;;13.02;6.05;;;;;;;24.66;33.29;102103.13;5095250;28;20032;-48
2023/04/04 19:23:09;;;;;;;17.48;5.63;;;;;;;24.55;33.71;102108.09;5094788;28;20099;-46
2023/04/04 19:25:37;;;;;;;15.18;6.15;;;;;;;24.50;33.66;102107.06;5093883;28;20082;-48
2023/04/04 19:28:05;;;;;;;12.45;4.78;;;;;;;24.35;33.98;102104.84;5093603;28;20032;-46
2023/04/04 19:30:44;;;;;;;9.95;4.72;;;;;;;24.38;33.86;102118.06;5094772;28;20106;-48
2023/04/04 19:33:15;;;;;;;15.00;5.65;;;;;;;24.45;33.85;102099.91;5094389;28;20066;-48
2023/04/04 19:35:52;;;;;;;8.50;4.53;;;;;;;24.59;33.61;102106.44;5094106;28;20024;-47
2023/04/04 19:38:25;;;;;;;9.60;4.63;;;;;;;24.79;33.11;102108.75;5094426;28;20527;-46
2023/04/04 19:40:59;;;;;;;10.30;5.05;;;;;;;24.86;32.88;102102.81;5094729;28;20059;-46
2023/04/04 19:43:27;;;;;;;8.50;4.03;;;;;;;24.69;33.51;102105.81;5094534;28;20021;-45
2023/04/04 19:45:57;;;;;;;10.05;4.15;;;;;;;24.83;33.19;102113.22;5094747;28;20115;-47
2023/04/04 19:48:48;;;;;;;9.93;4.32;;;;;;;24.86;33.18;102122.09;5094767;28;20409;-48
